Terminal Aerodrome Forecast
Issued by NWS

Home | Current Version | Previous Version | Text Only | Print | Product List | Glossary On
Versions: 1 2 3 4 5 6 7 8 9 10 11 12 13 14 15 16 17 18 19 20 21 22 23 24 25
857
FTUS43 KDLH 182336
TAFHIB
TAF
KHIB 182336Z 1900/1924 28005KT P6SM FEW110 BKN150
     FM190500 VRB03KT 5SM BR BKN070
      TEMPO 1908/1912 2SM BR
     FM191500 12003KT P6SM SCT150
     FM191800 11007KT P6SM BKN100=

USA.gov is the U.S. government's official web portal to all federal, state and local government web resources and services.